Time;durP1;ratioP1;P1;durP2;ratioP2;P2;SDS_P1;SDS_P2;PMS_P1;PMS_P2;Temp;Humidity;BMP_temperature;BMP_pressure;BME280_temperature;BME280_humidity;BME280_pressure;Samples;Min_cycle;Max_cycle;Signal;HPM_P1;HPM_P2
2022/10/31 00:01:27;;;;;;;18.50;16.70;;;;;;;13.88;100.00;97184.19;5089356;28;20175;-59
2022/10/31 00:03:53;;;;;;;14.93;13.60;;;;;;;13.83;100.00;97181.47;5079897;28;20856;-57
2022/10/31 00:06:19;;;;;;;14.70;11.43;;;;;;;13.81;100.00;97178.28;5092468;28;20204;-59
2022/10/31 00:08:52;;;;;;;11.23;10.20;;;;;;;13.81;100.00;97178.28;5083381;28;20580;-58
2022/10/31 00:11:17;;;;;;;14.47;11.13;;;;;;;13.81;100.00;97180.94;5072802;28;20169;-51
2022/10/31 00:13:43;;;;;;;10.80;9.67;;;;;;;13.89;100.00;97178.69;5072129;28;20262;-57
2022/10/31 00:16:19;;;;;;;14.20;11.57;;;;;;;13.94;100.00;97176.13;5072595;28;20181;-52
2022/10/31 00:18:49;;;;;;;13.03;11.63;;;;;;;13.93;100.00;97176.41;5072557;28;20280;-58
2022/10/31 00:21:14;;;;;;;13.33;11.27;;;;;;;13.90;100.00;97172.38;5090339;28;20644;-57
2022/10/31 00:23:40;;;;;;;15.63;12.80;;;;;;;13.91;100.00;97174.00;5091951;28;20160;-58
2022/10/31 00:26:06;;;;;;;18.17;16.63;;;;;;;13.94;100.00;97170.88;5092363;28;20198;-57
2022/10/31 00:28:33;;;;;;;23.93;21.83;;;;;;;13.90;100.00;97171.59;5092104;28;20208;-58
2022/10/31 00:31:03;;;;;;;25.50;23.50;;;;;;;13.89;100.00;97172.63;5076090;28;20265;-58
2022/10/31 00:33:28;;;;;;;23.40;21.10;;;;;;;13.92;100.00;97180.06;5057905;28;20207;-57
2022/10/31 00:35:54;;;;;;;16.33;14.57;;;;;;;13.95;100.00;97180.38;5072025;28;20181;-58
2022/10/31 00:38:20;;;;;;;15.27;13.67;;;;;;;13.87;100.00;97172.06;5072064;28;20216;-58
2022/10/31 00:40:45;;;;;;;16.40;14.70;;;;;;;13.90;100.00;97174.22;5086543;28;20177;-59
2022/10/31 00:43:11;;;;;;;16.50;11.67;;;;;;;13.85;100.00;97184.69;5091653;28;20196;-59
2022/10/31 00:45:36;;;;;;;14.40;11.60;;;;;;;13.82;100.00;97172.75;5091691;28;20169;-58
2022/10/31 00:48:01;;;;;;;15.17;11.80;;;;;;;13.76;100.00;97179.00;5070699;28;20310;-58
2022/10/31 00:50:27;;;;;;;12.67;11.40;;;;;;;13.71;100.00;97173.63;5071621;28;20271;-59
2022/10/31 00:52:52;;;;;;;13.70;12.27;;;;;;;13.72;100.00;97178.66;5071917;28;20733;-57
2022/10/31 00:55:18;;;;;;;13.90;11.27;;;;;;;13.74;100.00;97179.22;5071709;28;20197;-59
2022/10/31 00:57:47;;;;;;;10.93;9.93;;;;;;;13.74;100.00;97173.16;5075828;28;20201;-59
2022/10/31 01:00:13;;;;;;;12.10;10.87;;;;;;;13.68;100.00;97168.84;5084019;28;20215;-58
2022/10/31 01:02:39;;;;;;;13.03;11.57;;;;;;;13.57;100.00;97175.75;5074439;28;20181;-59
2022/10/31 01:05:05;;;;;;;13.83;12.10;;;;;;;13.49;100.00;97173.50;5072071;28;20539;-57
2022/10/31 01:07:30;;;;;;;13.43;12.17;;;;;;;13.46;100.00;97171.34;5073653;28;20205;-58
2022/10/31 01:09:56;;;;;;;14.20;12.07;;;;;;;13.41;100.00;97171.25;5093735;28;20165;-57
2022/10/31 01:12:21;;;;;;;13.03;11.77;;;;;;;13.46;100.00;97173.97;5068392;28;20173;-58
2022/10/31 01:14:46;;;;;;;12.60;11.07;;;;;;;13.41;100.00;97170.44;5075610;28;20193;-58
2022/10/31 01:17:13;;;;;;;13.17;11.00;;;;;;;13.34;100.00;97170.56;5075565;28;20668;-58
2022/10/31 01:19:39;;;;;;;13.27;11.97;;;;;;;13.36;100.00;97165.88;5057569;28;20177;-57
2022/10/31 01:22:04;;;;;;;19.67;12.90;;;;;;;13.31;100.00;97171.06;5075244;28;20669;-58
2022/10/31 01:24:30;;;;;;;14.77;12.53;;;;;;;13.34;100.00;97170.56;5075375;28;20252;-56
2022/10/31 01:26:55;;;;;;;16.23;11.53;;;;;;;13.26;100.00;97173.59;5087961;28;20173;-57
2022/10/31 01:29:21;;;;;;;12.80;11.70;;;;;;;13.25;100.00;97166.72;5078249;28;20177;-58
2022/10/31 01:31:46;;;;;;;13.47;12.23;;;;;;;13.36;100.00;97165.88;5075402;28;20197;-58
2022/10/31 01:34:16;;;;;;;13.80;12.60;;;;;;;13.36;100.00;97168.53;5075086;28;20561;-58
2022/10/31 01:36:42;;;;;;;13.23;12.00;;;;;;;13.21;100.00;97168.19;5074921;28;20276;-58
2022/10/31 01:39:13;;;;;;;13.43;11.90;;;;;;;13.23;100.00;97163.50;5057735;28;20565;-58
2022/10/31 01:41:41;;;;;;;14.57;13.37;;;;;;;13.24;100.00;97168.56;5075023;28;20169;-58
2022/10/31 01:44:16;;;;;;;13.10;11.63;;;;;;;13.14;100.00;97167.56;5075316;28;20664;-55
2022/10/31 01:46:48;;;;;;;13.83;12.43;;;;;;;13.10;100.00;97169.00;5072713;28;20228;-58
2022/10/31 01:49:28;;;;;;;13.13;11.83;;;;;;;13.10;100.00;97163.75;5073048;28;20231;-58
2022/10/31 01:51:58;;;;;;;13.20;12.10;;;;;;;13.15;100.00;97159.41;5074130;28;20202;-58
2022/10/31 01:54:30;;;;;;;12.57;11.30;;;;;;;13.14;100.00;97157.03;5074553;28;20189;-58
2022/10/31 01:56:57;;;;;;;12.43;8.83;;;;;;;13.22;100.00;97149.56;5074639;28;20208;-59
2022/10/31 01:59:26;;;;;;;11.33;9.43;;;;;;;13.19;100.00;97152.66;5074615;28;20173;-58
2022/10/31 02:01:52;;;;;;;10.33;9.13;;;;;;;13.28;100.00;97150.44;5073462;28;20206;-58
2022/10/31 02:04:20;;;;;;;12.23;10.73;;;;;;;13.35;100.00;97148.47;5074362;28;20181;-58
2022/10/31 02:06:55;;;;;;;13.73;12.33;;;;;;;13.38;100.00;97149.84;5074540;28;20633;-58
2022/10/31 02:09:23;;;;;;;23.67;21.63;;;;;;;13.46;100.00;97150.28;5074243;28;20256;-58
2022/10/31 02:11:52;;;;;;;17.27;15.50;;;;;;;13.50;100.00;97151.41;5073633;28;20173;-58
2022/10/31 02:14:18;;;;;;;12.83;11.50;;;;;;;13.57;100.00;97148.63;5074120;28;20205;-58
2022/10/31 02:16:43;;;;;;;13.00;11.87;;;;;;;13.51;100.00;97149.56;5074224;28;20177;-57
2022/10/31 02:19:16;;;;;;;13.60;12.50;;;;;;;13.45;100.00;97142.59;5073875;28;20205;-58
2022/10/31 02:21:57;;;;;;;14.60;13.33;;;;;;;13.45;100.00;97147.88;5074249;28;20453;-58
2022/10/31 02:24:46;;;;;;;16.27;14.70;;;;;;;13.35;100.00;97148.47;5073739;28;20187;-58
2022/10/31 02:27:37;;;;;;;19.07;17.30;;;;;;;13.24;100.00;97146.69;5074448;28;20180;-58
2022/10/31 02:30:25;;;;;;;16.67;14.97;;;;;;;13.16;100.00;97153.13;5073542;28;20165;-58
2022/10/31 02:32:54;;;;;;;13.20;11.97;;;;;;;13.11;100.00;97146.91;5073998;28;20181;-59
2022/10/31 02:35:27;;;;;;;12.37;11.27;;;;;;;13.18;100.00;97142.38;5073374;28;20204;-58
2022/10/31 02:38:21;;;;;;;12.73;11.60;;;;;;;13.20;100.00;97143.75;5073573;28;20208;-58
2022/10/31 02:41:24;;;;;;;13.83;12.47;;;;;;;13.23;100.00;97138.00;5048021;28;20547;-58
2022/10/31 02:43:58;;;;;;;14.83;12.50;;;;;;;13.14;100.00;97149.94;5073279;28;20180;-57
2022/10/31 02:46:45;;;;;;;12.17;11.13;;;;;;;13.01;100.00;97146.72;5071222;28;20900;-56
2022/10/31 02:49:22;;;;;;;12.93;11.87;;;;;;;12.85;100.00;97143.00;5077646;28;20201;-59
2022/10/31 02:51:48;;;;;;;24.60;22.70;;;;;;;12.50;100.00;97143.81;5082697;28;20204;-58
2022/10/31 02:54:25;;;;;;;23.60;21.87;;;;;;;12.14;100.00;97146.69;5076030;28;20238;-58
2022/10/31 02:57:04;;;;;;;19.93;17.27;;;;;;;12.24;100.00;97146.13;5073736;28;20260;-58
2022/10/31 02:59:32;;;;;;;15.80;14.50;;;;;;;12.06;100.00;97144.38;5075423;28;20173;-58
2022/10/31 03:02:20;;;;;;;16.30;14.77;;;;;;;12.05;100.00;97140.94;5073335;28;20197;-58
2022/10/31 03:04:49;;;;;;;15.77;14.43;;;;;;;11.96;100.00;97139.69;5058459;28;20218;-58
2022/10/31 03:07:23;;;;;;;16.00;14.57;;;;;;;11.94;100.00;97144.38;5090599;28;20202;-58
2022/10/31 03:10:10;;;;;;;16.07;14.67;;;;;;;11.92;100.00;97140.38;5082973;28;20525;-57
2022/10/31 03:12:56;;;;;;;18.13;13.20;;;;;;;11.96;100.00;97136.25;5086049;28;20226;-58
2022/10/31 03:15:44;;;;;;;12.63;11.33;;;;;;;11.91;100.00;97133.50;5092656;28;20199;-58
2022/10/31 03:18:17;;;;;;;11.57;10.43;;;;;;;11.97;100.00;97136.03;5093664;28;20231;-58
2022/10/31 03:20:47;;;;;;;11.80;10.70;;;;;;;11.80;100.00;97136.91;5091354;28;20165;-58
2022/10/31 03:23:17;;;;;;;11.93;10.80;;;;;;;11.82;100.00;97137.47;5090926;28;20593;-56
2022/10/31 03:25:43;;;;;;;12.80;10.67;;;;;;;11.71;100.00;97131.16;5072923;28;20165;-58
2022/10/31 03:28:12;;;;;;;12.27;11.03;;;;;;;11.73;100.00;97134.38;5072921;28;20220;-58
2022/10/31 03:30:42;;;;;;;12.10;11.00;;;;;;;11.63;100.00;97139.38;5086683;28;20201;-58
2022/10/31 03:33:14;;;;;;;12.87;10.73;;;;;;;11.66;100.00;97129.19;5092102;28;20575;-58
2022/10/31 03:35:45;;;;;;;12.67;10.73;;;;;;;11.76;100.00;97138.41;5088316;28;20251;-58
2022/10/31 03:38:12;;;;;;;13.83;9.73;;;;;;;11.78;100.00;97136.34;5081849;28;20200;-58
2022/10/31 03:40:42;;;;;;;14.63;10.67;;;;;;;11.72;100.00;97137.19;5078597;28;20675;-56
2022/10/31 03:43:16;;;;;;;11.63;9.70;;;;;;;11.63;100.00;97139.38;5072722;28;20196;-58
2022/10/31 03:45:45;;;;;;;12.03;10.70;;;;;;;11.58;100.00;97141.88;5071988;28;20181;-61
2022/10/31 03:48:13;;;;;;;11.27;9.60;;;;;;;11.58;100.00;97141.88;5090559;28;20216;-58
2022/10/31 03:51:06;;;;;;;13.47;10.03;;;;;;;11.54;100.00;97140.69;5092561;28;20177;-57
2022/10/31 03:53:41;;;;;;;13.83;10.40;;;;;;;11.76;100.00;97136.56;5058173;28;20207;-57
2022/10/31 03:56:22;;;;;;;13.83;10.10;;;;;;;11.63;100.00;97140.16;5092826;28;20554;-58
2022/10/31 03:58:58;;;;;;;12.20;10.97;;;;;;;11.59;100.00;97135.59;5092218;28;20207;-56
2022/10/31 04:01:25;;;;;;;12.90;11.30;;;;;;;11.57;100.00;97138.44;5091429;28;20181;-58
2022/10/31 04:03:51;;;;;;;14.63;13.07;;;;;;;11.51;100.00;97133.28;5074181;28;20243;-58
2022/10/31 04:06:20;;;;;;;14.63;13.20;;;;;;;11.44;100.00;97133.34;5092341;28;20700;-55
2022/10/31 04:08:51;;;;;;;13.40;12.13;;;;;;;11.40;100.00;97134.03;5092598;28;20199;-58
2022/10/31 04:11:19;;;;;;;14.97;13.47;;;;;;;11.52;100.00;97133.06;5092531;28;20165;-57
2022/10/31 04:13:47;;;;;;;15.47;14.03;;;;;;;11.47;100.00;97135.56;5092140;28;20225;-57
2022/10/31 04:16:15;;;;;;;16.37;14.70;;;;;;;11.33;100.00;97135.94;5091546;28;20180;-57
2022/10/31 04:18:40;;;;;;;15.97;14.57;;;;;;;11.35;100.00;97136.53;5092125;28;20212;-58
2022/10/31 04:21:07;;;;;;;16.93;15.67;;;;;;;11.31;100.00;97138.00;5092301;28;20180;-65
2022/10/31 04:23:35;;;;;;;19.07;17.17;;;;;;;11.17;100.00;97132.91;5092189;28;20181;-58
2022/10/31 04:26:00;;;;;;;17.67;16.13;;;;;;;11.18;100.00;97131.09;5091797;28;20176;-57
2022/10/31 04:28:26;;;;;;;17.40;16.13;;;;;;;11.20;100.00;97124.59;5091919;28;20207;-58
2022/10/31 04:30:52;;;;;;;17.70;16.23;;;;;;;11.18;100.00;97129.28;5092290;28;20188;-57
2022/10/31 04:33:17;;;;;;;15.60;14.23;;;;;;;11.20;100.00;97132.47;5073913;28;20230;-58
2022/10/31 04:35:43;;;;;;;14.60;13.40;;;;;;;11.11;100.00;97130.38;5091472;28;20204;-57
2022/10/31 04:38:08;;;;;;;13.63;12.40;;;;;;;11.16;100.00;97127.88;5091898;28;20246;-58
2022/10/31 04:40:34;;;;;;;14.30;13.17;;;;;;;11.19;100.00;97122.19;5091969;28;20183;-56
2022/10/31 04:42:59;;;;;;;15.67;13.73;;;;;;;11.16;100.00;97115.56;5091771;28;20180;-58
2022/10/31 04:45:25;;;;;;;13.20;11.77;;;;;;;11.19;100.00;97111.72;5094836;28;20598;-56
2022/10/31 04:47:50;;;;;;;18.00;12.27;;;;;;;11.24;100.00;97109.22;5075662;28;20282;-57
2022/10/31 04:50:16;;;;;;;11.07;10.07;;;;;;;11.25;100.00;97105.56;5075636;28;20180;-58
2022/10/31 04:52:43;;;;;;;15.37;11.30;;;;;;;11.30;100.00;97103.09;5083176;28;20172;-57
2022/10/31 04:55:09;;;;;;;15.57;11.47;;;;;;;11.42;100.00;97105.75;5095793;28;20201;-58
2022/10/31 04:57:45;;;;;;;14.13;11.07;;;;;;;11.31;100.00;97103.88;5080187;28;20209;-57
2022/10/31 05:00:11;;;;;;;13.93;12.17;;;;;;;11.27;100.00;97106.94;5078165;28;20181;-58
2022/10/31 05:02:51;;;;;;;12.43;11.13;;;;;;;11.35;100.00;97103.22;5096175;28;20176;-58
2022/10/31 05:05:20;;;;;;;13.07;12.07;;;;;;;11.21;100.00;97104.41;5078010;28;20172;-58
2022/10/31 05:07:47;;;;;;;12.07;10.77;;;;;;;11.20;100.00;97103.59;5093383;28;20299;-58
2022/10/31 05:10:16;;;;;;;12.30;11.10;;;;;;;11.23;100.00;97102.38;5094932;28;20310;-56
2022/10/31 05:12:53;;;;;;;14.23;11.63;;;;;;;11.21;100.00;97099.16;5088411;28;20176;-58
2022/10/31 05:15:20;;;;;;;11.33;10.33;;;;;;;11.02;100.00;97094.97;5095417;28;20582;-57
2022/10/31 05:17:45;;;;;;;11.10;10.00;;;;;;;10.91;100.00;97087.84;5079488;28;20212;-58
2022/10/31 05:20:13;;;;;;;11.97;10.97;;;;;;;10.83;100.00;97087.13;5095276;28;20165;-57
2022/10/31 05:22:44;;;;;;;11.50;10.50;;;;;;;10.86;100.00;97095.59;5094994;28;20202;-55
2022/10/31 05:25:10;;;;;;;10.90;9.90;;;;;;;10.83;100.00;97089.75;5095461;28;20183;-57
2022/10/31 05:27:42;;;;;;;11.00;10.00;;;;;;;10.96;100.00;97085.38;5080354;28;20730;-58
2022/10/31 05:30:08;;;;;;;10.00;9.20;;;;;;;11.03;100.00;97092.16;5078183;28;20211;-58
2022/10/31 05:32:45;;;;;;;9.87;8.97;;;;;;;10.77;100.00;97092.44;5076826;28;20199;-58
2022/10/31 05:35:16;;;;;;;9.30;8.70;;;;;;;10.82;100.00;97093.38;5083481;28;20276;-58
2022/10/31 05:37:42;;;;;;;9.00;8.23;;;;;;;10.74;100.00;97091.09;5090784;28;20211;-57
2022/10/31 05:40:09;;;;;;;8.70;8.13;;;;;;;10.64;100.00;97087.38;5094829;28;20587;-55
2022/10/31 05:42:35;;;;;;;10.23;9.50;;;;;;;10.65;100.00;97083.72;5087857;28;20184;-59
2022/10/31 05:45:00;;;;;;;9.70;9.00;;;;;;;10.61;100.00;97090.41;5074766;28;20189;-58
2022/10/31 05:47:26;;;;;;;9.37;8.53;;;;;;;10.55;100.00;97083.44;5086459;28;20562;-57
2022/10/31 05:49:51;;;;;;;9.13;8.23;;;;;;;10.51;100.00;97084.91;5094630;28;20196;-59
2022/10/31 05:52:17;;;;;;;11.00;10.00;;;;;;;10.47;100.00;97081.91;5094538;28;20177;-56
2022/10/31 05:54:42;;;;;;;10.73;9.60;;;;;;;10.46;100.00;97075.06;5093745;28;20216;-58
2022/10/31 05:57:08;;;;;;;14.97;12.10;;;;;;;10.44;100.00;97090.19;5095127;28;20193;-59
2022/10/31 05:59:34;;;;;;;18.77;16.13;;;;;;;10.45;100.00;97073.47;5094230;28;20298;-59
2022/10/31 06:01:59;;;;;;;18.50;16.20;;;;;;;10.52;100.00;97071.56;5093644;28;20169;-58
2022/10/31 06:04:25;;;;;;;21.17;18.37;;;;;;;10.52;100.00;97082.06;5094346;28;20165;-59
2022/10/31 06:06:50;;;;;;;17.17;15.33;;;;;;;10.60;100.00;97081.75;5076621;28;20279;-58
2022/10/31 06:09:15;;;;;;;17.70;15.90;;;;;;;10.65;100.00;97081.09;5094449;28;20200;-58
2022/10/31 06:11:41;;;;;;;16.17;14.70;;;;;;;10.67;100.00;97073.81;5094512;28;20173;-56
2022/10/31 06:14:06;;;;;;;13.87;12.43;;;;;;;10.63;100.00;97076.09;5094240;28;20209;-59
2022/10/31 06:16:32;;;;;;;15.17;13.63;;;;;;;10.65;100.00;97071.41;5094580;28;20188;-57
2022/10/31 06:18:58;;;;;;;13.23;11.90;;;;;;;10.94;100.00;97075.09;5094813;28;20208;-58
2022/10/31 06:21:23;;;;;;;15.00;11.47;;;;;;;10.84;100.00;97074.81;5094110;28;20188;-56
2022/10/31 06:23:49;;;;;;;13.20;12.00;;;;;;;10.91;100.00;97078.16;5094416;28;20176;-59
2022/10/31 06:26:14;;;;;;;13.47;12.20;;;;;;;10.98;100.00;97078.09;5093923;28;20218;-59
2022/10/31 06:28:40;;;;;;;13.70;11.97;;;;;;;11.06;100.00;97077.78;5094087;28;20572;-59
2022/10/31 06:31:05;;;;;;;12.97;11.47;;;;;;;11.14;100.00;97083.53;5094233;28;20187;-59
2022/10/31 06:33:30;;;;;;;14.10;12.17;;;;;;;11.13;100.00;97076.66;5093936;28;20310;-59
2022/10/31 06:35:56;;;;;;;13.50;12.17;;;;;;;11.18;100.00;97082.03;5093740;28;20215;-58
2022/10/31 06:38:21;;;;;;;13.40;12.07;;;;;;;11.44;100.00;97074.81;5093965;28;20212;-59
2022/10/31 06:40:47;;;;;;;17.30;15.93;;;;;;;11.59;100.00;97078.59;5093795;28;20184;-59
2022/10/31 06:43:14;;;;;;;15.43;13.93;;;;;;;11.61;100.00;97079.19;5092998;28;20184;-60
2022/10/31 06:45:39;;;;;;;20.27;14.90;;;;;;;11.63;100.00;97078.97;5093655;28;20687;-58
2022/10/31 06:48:05;;;;;;;20.67;13.33;;;;;;;11.58;100.00;97076.22;5077311;28;20236;-59
2022/10/31 06:50:30;;;;;;;11.50;10.30;;;;;;;11.68;100.00;97081.72;5089237;28;20268;-60
2022/10/31 06:52:57;;;;;;;11.80;9.77;;;;;;;11.88;100.00;97076.97;5078530;28;20265;-57
2022/10/31 06:55:24;;;;;;;13.77;12.47;;;;;;;11.80;100.00;97079.94;5089947;28;20204;-57
2022/10/31 06:58:00;;;;;;;21.30;10.43;;;;;;;11.75;100.00;97085.09;5073332;28;20661;-60
2022/10/31 07:00:27;;;;;;;15.00;13.03;;;;;;;11.73;100.00;97083.66;5073447;28;20180;-60
2022/10/31 07:02:53;;;;;;;15.83;14.37;;;;;;;11.80;100.00;97074.69;5073722;28;20169;-60
2022/10/31 07:05:18;;;;;;;10.77;9.70;;;;;;;11.83;100.00;97081.31;5073254;28;20227;-59
2022/10/31 07:07:44;;;;;;;11.63;9.00;;;;;;;12.12;100.00;97082.25;5079333;28;20208;-58
2022/10/31 07:10:09;;;;;;;10.63;9.10;;;;;;;12.11;100.00;97081.44;5082904;28;20181;-59
2022/10/31 07:12:34;;;;;;;15.40;10.80;;;;;;;12.28;100.00;97082.34;5073301;28;20185;-58
2022/10/31 07:15:00;;;;;;;10.17;9.17;;;;;;;12.50;100.00;97072.84;5072442;28;20209;-56
2022/10/31 07:17:25;;;;;;;15.67;11.13;;;;;;;12.52;100.00;97077.88;5071934;28;20287;-59
2022/10/31 07:19:50;;;;;;;15.63;14.17;;;;;;;12.50;100.00;97079.94;5079352;28;20184;-58
2022/10/31 07:22:16;;;;;;;18.83;17.43;;;;;;;12.71;100.00;97089.03;5092278;28;20183;-57
2022/10/31 07:24:41;;;;;;;31.57;18.30;;;;;;;12.90;100.00;97088.66;5078802;28;20181;-59
2022/10/31 07:27:07;;;;;;;14.17;12.90;;;;;;;12.71;100.00;97084.56;5072844;28;20193;-59
2022/10/31 07:29:32;;;;;;;13.17;12.17;;;;;;;12.81;100.00;97092.69;5073647;28;20764;-59
2022/10/31 07:31:57;;;;;;;14.00;12.63;;;;;;;12.63;100.00;97094.66;5073131;28;20184;-59
2022/10/31 07:34:23;;;;;;;14.50;13.50;;;;;;;12.53;100.00;97092.63;5072746;28;20206;-58
2022/10/31 07:36:50;;;;;;;126.33;119.03;;;;;;;12.61;100.00;97094.06;5072998;28;20185;-64
2022/10/31 07:39:15;;;;;;;20.90;19.30;;;;;;;12.28;100.00;97084.97;5074285;28;20613;-63
2022/10/31 07:41:41;;;;;;;22.80;20.47;;;;;;;12.30;100.00;97085.56;5065072;28;20192;-63
2022/10/31 07:44:06;;;;;;;21.37;19.47;;;;;;;12.37;100.00;97086.22;5073481;28;20181;-59
2022/10/31 07:46:31;;;;;;;13.90;12.43;;;;;;;12.67;100.00;97080.81;5070173;28;20278;-58
2022/10/31 07:48:57;;;;;;;10.87;9.77;;;;;;;12.84;100.00;97088.78;5075316;28;20204;-59
2022/10/31 07:51:23;;;;;;;11.53;10.23;;;;;;;12.82;100.00;97083.75;5072565;28;20189;-59
2022/10/31 07:53:49;;;;;;;22.00;20.23;;;;;;;12.49;100.00;97081.75;5072241;28;20177;-59
2022/10/31 07:56:14;;;;;;;13.53;12.43;;;;;;;12.42;100.00;97086.34;5079787;28;20176;-59
2022/10/31 07:58:40;;;;;;;11.80;10.77;;;;;;;12.28;100.00;97092.88;5087633;28;20201;-59
2022/10/31 08:01:05;;;;;;;11.00;9.60;;;;;;;12.32;100.00;97090.56;5071720;28;20172;-59
2022/10/31 08:03:31;;;;;;;9.70;8.70;;;;;;;12.37;100.00;97085.44;5072355;28;20201;-59
2022/10/31 08:05:56;;;;;;;9.80;8.70;;;;;;;12.23;100.00;97084.06;5072307;28;20195;-58
2022/10/31 08:08:23;;;;;;;9.97;8.97;;;;;;;12.43;100.00;97092.38;5078392;28;20219;-59
2022/10/31 08:10:49;;;;;;;10.07;9.00;;;;;;;12.65;100.00;97085.50;5092937;28;20168;-59
2022/10/31 08:13:14;;;;;;;9.70;8.73;;;;;;;12.68;100.00;97087.66;5092581;28;20168;-60
2022/10/31 08:15:41;;;;;;;9.33;8.53;;;;;;;12.79;100.00;97089.47;5092277;28;20215;-57
2022/10/31 08:18:13;;;;;;;14.40;13.20;;;;;;;12.88;100.00;97088.06;5092515;28;20216;-58
2022/10/31 08:20:38;;;;;;;13.73;12.67;;;;;;;13.17;100.00;97088.13;5092533;28;20165;-59
2022/10/31 08:23:05;;;;;;;13.67;12.50;;;;;;;13.15;100.00;97090.19;5092222;28;20243;-58
2022/10/31 08:25:33;;;;;;;13.67;12.10;;;;;;;13.49;100.00;97085.78;5090276;28;20168;-59
2022/10/31 08:27:58;;;;;;;10.67;9.77;;;;;;;13.58;100.00;97085.19;5091656;28;20208;-58
2022/10/31 08:30:27;;;;;;;14.57;13.23;;;;;;;13.27;100.00;97091.72;5075515;28;20391;-57
2022/10/31 08:33:09;;;;;;;14.83;13.70;;;;;;;13.60;100.00;97083.09;5090551;28;20251;-58
2022/10/31 08:35:37;;;;;;;12.13;11.33;;;;;;;13.93;100.00;97084.94;5079234;28;20227;-57
2022/10/31 08:38:03;;;;;;;14.63;13.03;;;;;;;13.95;100.00;97074.16;5071952;28;20212;-59
2022/10/31 08:40:31;;;;;;;12.27;11.17;;;;;;;14.13;100.00;97077.34;5072978;28;20184;-57
2022/10/31 08:43:01;;;;;;;17.93;16.70;;;;;;;14.16;100.00;97070.78;5078793;28;20205;-59
2022/10/31 08:45:28;;;;;;;26.63;24.90;;;;;;;14.34;100.00;97067.09;5079931;28;20185;-57
2022/10/31 08:47:57;;;;;;;65.33;61.43;;;;;;;14.18;100.00;97070.56;5086616;28;20623;-57
2022/10/31 08:50:23;;;;;;;39.80;37.00;;;;;;;14.54;100.00;97067.41;5092034;28;20259;-59
2022/10/31 08:52:49;;;;;;;45.07;42.20;;;;;;;14.38;100.00;97060.31;5091650;28;20177;-59
2022/10/31 08:55:14;;;;;;;56.90;53.23;;;;;;;14.64;100.00;97064.88;5087288;28;20877;-58
2022/10/31 08:57:40;;;;;;;83.30;78.33;;;;;;;14.76;100.00;97062.94;5091200;28;20204;-59
2022/10/31 09:00:06;;;;;;;72.27;67.63;;;;;;;14.48;100.00;97063.09;5091846;28;20200;-59
2022/10/31 09:02:31;;;;;;;57.00;53.50;;;;;;;14.35;100.00;97055.50;5091483;28;20176;-60
2022/10/31 09:04:57;;;;;;;48.43;45.13;;;;;;;14.51;100.00;97052.06;5091246;28;20482;-58
2022/10/31 09:07:22;;;;;;;47.53;44.30;;;;;;;14.78;100.00;97052.09;5091725;28;20249;-60
2022/10/31 09:09:48;;;;;;;47.97;44.83;;;;;;;15.05;100.00;97058.22;5087911;28;20176;-59
2022/10/31 09:12:13;;;;;;;40.13;37.57;;;;;;;15.19;100.00;97062.06;5091655;28;20207;-59
2022/10/31 09:14:38;;;;;;;34.63;32.53;;;;;;;15.32;100.00;97058.25;5091373;28;20201;-59
2022/10/31 09:17:04;;;;;;;32.40;30.10;;;;;;;15.32;100.00;97060.91;5091545;28;20567;-58
2022/10/31 09:19:30;;;;;;;32.13;29.77;;;;;;;15.66;100.00;97059.63;5091693;28;20177;-59
2022/10/31 09:21:55;;;;;;;33.30;31.07;;;;;;;15.47;100.00;97055.75;5091729;28;20169;-59
2022/10/31 09:24:21;;;;;;;35.80;32.83;;;;;;;15.58;100.00;97052.19;5091991;28;20194;-57
2022/10/31 09:26:47;;;;;;;84.50;79.70;;;;;;;15.77;100.00;97060.53;5092316;28;20169;-59
2022/10/31 09:29:12;;;;;;;91.13;82.07;;;;;;;15.31;100.00;97054.00;5091998;28;20204;-59
2022/10/31 09:31:38;;;;;;;63.28;59.13;;;;;;;15.36;100.00;97046.94;5094423;28;20176;-60
2022/10/31 09:34:03;;;;;;;41.03;38.07;;;;;;;15.51;100.00;97056.03;5095442;28;20200;-60
2022/10/31 09:36:29;;;;;;;21.10;19.33;;;;;;;15.51;100.00;97053.38;5095205;28;20184;-55
2022/10/31 09:38:54;;;;;;;15.23;14.05;;;;;;;15.43;100.00;97057.31;5095069;28;20226;-55
2022/10/31 09:41:43;;;;;;;10.80;9.45;;;;;;;15.44;100.00;97047.50;5095059;28;20238;-55
2022/10/31 09:44:14;;;;;;;8.95;8.05;;;;;;;15.56;100.00;97041.06;5081198;28;20192;-54
2022/10/31 09:46:42;;;;;;;9.63;8.87;;;;;;;15.48;100.00;97032.78;5087492;28;20632;-58
2022/10/31 09:49:40;;;;;;;11.60;10.77;;;;;;;15.57;100.00;97041.84;5080185;28;20212;-59
2022/10/31 09:52:16;;;;;;;15.30;14.10;;;;;;;15.57;100.00;97042.66;5073636;28;20168;-59
2022/10/31 09:54:49;;;;;;;18.52;17.20;;;;;;;15.61;100.00;97048.22;5081895;28;20208;-60
2022/10/31 09:57:19;;;;;;;23.50;21.73;;;;;;;15.78;100.00;97048.88;5091650;28;20582;-60
2022/10/31 09:59:47;;;;;;;23.50;21.73;;;;;;;15.82;100.00;97050.00;5077567;28;20178;-59
2022/10/31 10:02:26;;;;;;;19.98;18.48;;;;;;;15.86;100.00;97045.00;5089660;28;20223;-59
2022/10/31 10:04:59;;;;;;;17.88;16.48;;;;;;;15.73;100.00;97033.00;5086136;28;20173;-59
2022/10/31 10:07:46;;;;;;;20.30;18.48;;;;;;;15.78;100.00;97038.31;5077105;28;20250;-58
2022/10/31 10:10:14;;;;;;;24.40;22.70;;;;;;;16.13;100.00;97035.91;5091830;28;20184;-57
2022/10/31 10:12:42;;;;;;;20.00;18.58;;;;;;;16.21;100.00;97032.00;5094659;28;20180;-59
2022/10/31 10:15:34;;;;;;;23.13;21.23;;;;;;;16.26;100.00;97025.94;5080000;28;20189;-59
2022/10/31 10:18:05;;;;;;;53.13;49.17;;;;;;;16.45;100.00;97029.72;5084673;28;20661;-58
2022/10/31 10:21:01;;;;;;;29.10;27.17;;;;;;;16.70;100.00;97032.53;5092697;28;20196;-58
2022/10/31 10:23:47;;;;;;;64.75;60.25;;;;;;;16.55;100.00;97030.56;5091893;28;20181;-58
2022/10/31 10:26:18;;;;;;;56.15;52.17;;;;;;;16.75;100.00;97032.56;5074390;28;20169;-58
2022/10/31 10:28:57;;;;;;;97.72;91.97;;;;;;;16.53;100.00;97027.41;5075870;28;20668;-58
2022/10/31 10:31:51;;;;;;;110.72;104.25;;;;;;;16.44;100.00;97025.53;5074443;28;20169;-58
2022/10/31 10:34:24;;;;;;;51.13;47.42;;;;;;;16.46;100.00;97028.69;5081368;28;20201;-57
2022/10/31 10:36:57;;;;;;;90.32;84.63;;;;;;;16.50;100.00;97027.09;5093405;28;20191;-59
2022/10/31 10:39:23;;;;;;;83.50;78.32;;;;;;;16.70;100.00;97029.09;5071883;28;20215;-58
2022/10/31 10:47:38;;;;;;;53.55;49.88;;;;;;;16.67;100.00;97025.09;5075329;28;20271;-59
2022/10/31 10:50:13;;;;;;;76.97;72.05;;;;;;;16.39;100.00;97022.81;5087787;28;20252;-59
2022/10/31 10:52:47;;;;;;;78.93;73.78;;;;;;;16.65;99.57;97019.28;5092547;28;20590;-59
2022/10/31 10:55:32;;;;;;;81.93;75.93;;;;;;;16.43;100.00;97016.78;5075972;28;20200;-59
2022/10/31 10:58:03;;;;;;;40.55;37.00;;;;;;;16.42;100.00;97014.38;5080462;28;20243;-59
2022/10/31 11:00:36;;;;;;;31.35;28.45;;;;;;;16.39;99.58;97009.59;5084388;28;20177;-59
2022/10/31 11:03:02;;;;;;;22.05;20.10;;;;;;;16.57;97.84;97002.00;5090733;28;20169;-58
2022/10/31 11:05:35;;;;;;;16.63;15.05;;;;;;;16.74;97.06;96996.53;5080567;28;20169;-59
2022/10/31 11:08:01;;;;;;;16.50;14.55;;;;;;;16.82;96.55;97000.53;5075930;28;20201;-59
2022/10/31 11:10:27;;;;;;;29.35;27.13;;;;;;;16.63;96.59;96992.28;5074574;28;20653;-61
2022/10/31 11:13:17;;;;;;;45.28;42.30;;;;;;;16.52;96.47;96988.75;5073850;28;20173;-63
2022/10/31 11:16:03;;;;;;;53.65;49.88;;;;;;;16.97;93.47;96990.78;5059735;28;20193;-61
2022/10/31 11:18:39;;;;;;;230.02;216.05;;;;;;;17.05;92.23;96992.91;5075318;28;20208;-61
2022/10/31 11:21:05;;;;;;;243.07;228.63;;;;;;;16.98;93.19;96978.34;5072936;28;20563;-61
2022/10/31 11:23:32;;;;;;;207.82;196.07;;;;;;;16.90;92.99;96976.19;5057119;28;20176;-62
2022/10/31 11:26:00;;;;;;;152.02;143.38;;;;;;;16.95;92.74;96978.84;5073024;28;20166;-63
2022/10/31 11:28:29;;;;;;;137.25;128.27;;;;;;;17.36;91.79;96967.25;5086097;28;20201;-61